LNG Dream — C6VO5 — position and weather

sailwx.info

Track history (hours):
 
Tides and Currents Weather Stations Pressure Air Temp Water Temp Dewpoint Dewpoint Depression Visibility Wind Speed Wind Dir Waves Ship Positions

LNG Dream

Last reported at 2015-Jun-25 17:25 UTC. Time now 2015-Jul-04 20:41 UTC.
Position S 19°03' E 117°32'.
Warning: this ship's position is 9 days out of date.

Length 289.6 m; beam 49 m.

Type: Ship (hazmat cat A). MMSI: 309065000.

Date/timePositionNaut miles runAvg speedWind from/ knotsBaromVisibWave heightAir tempDewpointWater temp
2015-Jun-25 17:25S 19°03' E 117°32'1314.4
2015-Jun-25 16:29S 19°14' E 117°25'1414.6
2015-Jun-25 15:33S 19°26' E 117°18'1414.5
2015-Jun-25 14:33S 19°39' E 117°10'1414.1
2015-Jun-25 13:33S 19°51' E 117°03'1414.1
2015-Jun-25 12:32S 20°03' E 116°54'1413.6
2015-Jun-25 11:29S 20°15' E 116°47'1211.2
2015-Jun-25 10:26S 20°27' E 116°44'8 8.9
2015-Jun-25 09:33S 20°34' E 116°45'1 0.0
2015-Jun-24 06:32S 20°35' E 116°46'6 6.2
2015-Jun-24 05:32S 20°29' E 116°44'9 8.5
2015-Jun-24 04:28S 20°21' E 116°46'2 1.8
2015-Jun-24 03:13S 20°18' E 116°46'5 7.9
2015-Jun-24 02:32S 20°13' E 116°48'  
Track history (hours):
 
Tides and Currents Weather Stations Pressure Air Temp Water Temp Dewpoint Dewpoint Depression Visibility Wind Speed Wind Dir Waves Ship Positions

LNG Dream

Last reported at 2015-Jun-25 17:25 UTC. Time now 2015-Jul-04 20:41 UTC.
Position S 19°03' E 117°32'.
Warning: this ship's position is 9 days out of date.

Length 289.6 m; beam 49 m.

Type: Ship (hazmat cat A). MMSI: 309065000.

Date/timePositionNaut miles runAvg speedWind from/ knotsBaromVisibWave heightAir tempDewpointWater temp
2015-Jun-25 17:25S 19°03' E 117°32'1314.4
2015-Jun-25 16:29S 19°14' E 117°25'1414.6
2015-Jun-25 15:33S 19°26' E 117°18'1414.5
2015-Jun-25 14:33S 19°39' E 117°10'1414.1
2015-Jun-25 13:33S 19°51' E 117°03'1414.1
2015-Jun-25 12:32S 20°03' E 116°54'1413.6
2015-Jun-25 11:29S 20°15' E 116°47'1211.2
2015-Jun-25 10:26S 20°27' E 116°44'8 8.9
2015-Jun-25 09:33S 20°34' E 116°45'1 0.0
2015-Jun-24 06:32S 20°35' E 116°46'6 6.2
2015-Jun-24 05:32S 20°29' E 116°44'9 8.5
2015-Jun-24 04:28S 20°21' E 116°46'2 1.8
2015-Jun-24 03:13S 20°18' E 116°46'5 7.9
2015-Jun-24 02:32S 20°13' E 116°48'  

Dump ship's entire track history